createdAt,value
2022-11-16T00:00:11.283Z,2.60
2022-11-16T00:02:39.644Z,2.50
2022-11-16T00:05:08.406Z,2.60
2022-11-16T00:07:36.974Z,2.60
2022-11-16T00:10:05.726Z,2.50
2022-11-16T00:12:35.195Z,2.50
2022-11-16T00:15:03.330Z,2.50
2022-11-16T00:17:31.754Z,2.50
2022-11-16T00:20:00.287Z,2.50
2022-11-16T00:22:28.507Z,2.50
2022-11-16T00:24:56.548Z,2.50
2022-11-16T00:27:24.643Z,2.50
2022-11-16T00:29:54.733Z,2.50
2022-11-16T00:32:23.605Z,2.50
2022-11-16T00:34:51.812Z,2.50
2022-11-16T00:37:20.067Z,2.50
2022-11-16T00:39:48.243Z,2.50
2022-11-16T00:42:16.533Z,2.60
2022-11-16T00:44:45.917Z,2.50
2022-11-16T00:47:15.747Z,2.60
2022-11-16T00:49:44.049Z,2.60
2022-11-16T00:52:12.182Z,2.60
2022-11-16T00:54:40.221Z,2.70
2022-11-16T00:57:08.296Z,2.70
2022-11-16T00:59:37.348Z,2.70
2022-11-16T01:02:05.445Z,2.80
2022-11-16T01:04:35.490Z,2.80
2022-11-16T01:07:03.603Z,2.80
2022-11-16T01:09:31.709Z,2.80
2022-11-16T01:12:10.569Z,2.80
2022-11-16T01:14:40.315Z,2.90
2022-11-16T01:17:08.897Z,2.90
2022-11-16T01:19:39.171Z,2.90
2022-11-16T01:22:07.344Z,3.00
2022-11-16T01:24:36.472Z,3.00
2022-11-16T01:27:04.624Z,3.10
2022-11-16T01:29:36.074Z,3.10
2022-11-16T01:32:04.405Z,3.10
2022-11-16T01:34:33.070Z,3.20
2022-11-16T01:37:11.614Z,3.20
2022-11-16T01:39:42.711Z,3.20
2022-11-16T01:42:17.874Z,3.20
2022-11-16T01:45:09.150Z,3.30
2022-11-16T01:47:37.502Z,3.30
2022-11-16T01:50:11.341Z,3.40
2022-11-16T01:52:46.842Z,3.40
2022-11-16T01:55:15.478Z,3.40
2022-11-16T01:58:00.783Z,3.40
2022-11-16T02:00:30.430Z,3.30
2022-11-16T02:03:12.971Z,3.40
2022-11-16T02:06:04.169Z,3.40
2022-11-16T02:08:58.480Z,3.40
2022-11-16T02:11:44.234Z,3.30
2022-11-16T02:14:24.025Z,3.30
2022-11-16T02:17:00.855Z,3.30
2022-11-16T02:19:58.965Z,3.30
2022-11-16T02:22:47.041Z,3.40
2022-11-16T02:25:24.190Z,3.40
2022-11-16T02:28:25.422Z,3.40
2022-11-16T02:30:57.029Z,3.50
2022-11-16T02:33:32.395Z,3.50
2022-11-16T02:36:03.389Z,3.60
2022-11-16T02:38:34.098Z,3.50
2022-11-16T02:41:06.045Z,3.60
2022-11-16T02:43:39.630Z,3.70
2022-11-16T02:46:13.403Z,3.70
2022-11-16T02:48:45.882Z,3.70
2022-11-16T02:51:15.082Z,3.70
2022-11-16T02:54:01.669Z,3.70
2022-11-16T02:56:31.145Z,3.70
2022-11-16T02:59:00.575Z,3.80
2022-11-16T03:01:38.476Z,3.70
2022-11-16T03:04:12.584Z,3.80
2022-11-16T03:06:43.715Z,3.80
2022-11-16T03:09:16.328Z,3.80
2022-11-16T03:11:59.752Z,3.80
2022-11-16T03:14:34.766Z,3.80
2022-11-16T03:17:07.035Z,3.80
2022-11-16T03:19:40.362Z,3.70
2022-11-16T03:22:15.407Z,3.80
2022-11-16T03:24:45.055Z,3.80
2022-11-16T03:27:24.246Z,3.80
2022-11-16T03:30:01.496Z,3.80
2022-11-16T03:32:35.708Z,3.80
2022-11-16T03:35:12.817Z,3.80
2022-11-16T03:37:42.101Z,3.80
2022-11-16T03:40:13.737Z,3.80
2022-11-16T03:42:43.129Z,3.80
2022-11-16T03:45:13.475Z,3.80
2022-11-16T03:47:44.348Z,3.90
2022-11-16T03:50:13.322Z,3.90
2022-11-16T03:52:43.702Z,3.90
2022-11-16T03:55:14.190Z,3.90
2022-11-16T03:57:44.039Z,3.90
2022-11-16T04:00:13.648Z,3.90
2022-11-16T04:02:41.660Z,3.90
2022-11-16T04:05:34.573Z,4.00
2022-11-16T04:08:20.311Z,4.00
2022-11-16T04:11:05.784Z,4.00
2022-11-16T04:13:53.821Z,4.00
2022-11-16T04:16:39.554Z,4.00
2022-11-16T04:19:27.749Z,4.00
2022-11-16T04:22:16.679Z,4.00
2022-11-16T04:24:47.789Z,4.00
2022-11-16T04:27:35.010Z,4.00
2022-11-16T04:30:06.273Z,4.00
2022-11-16T04:32:53.412Z,4.00
2022-11-16T04:35:38.718Z,4.00
2022-11-16T04:38:10.561Z,4.00
2022-11-16T04:40:39.276Z,4.00
2022-11-16T04:43:07.683Z,4.10
2022-11-16T04:45:57.032Z,4.10
2022-11-16T04:48:30.231Z,4.10
2022-11-16T04:50:58.586Z,4.00
2022-11-16T04:53:28.566Z,4.10
2022-11-16T04:56:05.117Z,4.10
2022-11-16T04:58:34.594Z,4.10
2022-11-16T05:01:03.933Z,4.10
2022-11-16T05:03:32.273Z,4.10
2022-11-16T05:06:00.351Z,4.10
2022-11-16T05:08:30.695Z,4.10
2022-11-16T05:11:00.190Z,4.10
2022-11-16T05:13:28.670Z,4.10
2022-11-16T05:15:56.911Z,4.10
2022-11-16T05:18:24.945Z,4.10
2022-11-16T05:21:01.144Z,4.10
2022-11-16T05:23:52.867Z,4.10
2022-11-16T05:26:23.862Z,4.10
2022-11-16T05:28:53.289Z,4.10
2022-11-16T05:31:22.055Z,4.20
2022-11-16T05:33:50.301Z,4.20
2022-11-16T05:36:19.821Z,4.10
2022-11-16T05:38:53.834Z,4.10
2022-11-16T05:41:25.644Z,4.10
2022-11-16T05:43:55.390Z,4.20
2022-11-16T05:46:23.915Z,4.20
2022-11-16T05:48:52.218Z,4.20
2022-11-16T05:51:20.543Z,4.20
2022-11-16T05:53:50.601Z,4.20
2022-11-16T05:56:22.886Z,4.20
2022-11-16T05:58:52.942Z,4.20
2022-11-16T06:01:22.047Z,4.20
2022-11-16T06:03:51.363Z,4.20
2022-11-16T06:06:20.581Z,4.20
2022-11-16T06:08:51.606Z,4.20
2022-11-16T06:11:25.154Z,4.20
2022-11-16T06:13:53.371Z,4.20
2022-11-16T06:16:21.995Z,4.20
2022-11-16T06:18:50.411Z,4.20
2022-11-16T06:21:20.773Z,4.20
2022-11-16T06:23:51.111Z,4.20
2022-11-16T06:26:19.674Z,4.30
2022-11-16T06:28:49.008Z,4.30
2022-11-16T06:31:17.281Z,4.30
2022-11-16T06:33:46.529Z,4.20
2022-11-16T06:36:20.291Z,4.30
2022-11-16T06:38:49.199Z,4.20
2022-11-16T06:41:19.785Z,4.20
2022-11-16T06:43:50.457Z,4.30
2022-11-16T06:46:22.251Z,4.20
2022-11-16T06:48:50.411Z,4.30
2022-11-16T06:51:19.613Z,4.30
2022-11-16T06:53:49.031Z,4.30
2022-11-16T06:56:19.611Z,4.30
2022-11-16T06:58:53.694Z,4.40
2022-11-16T07:01:23.073Z,4.40
2022-11-16T07:03:54.372Z,4.40
2022-11-16T07:06:22.841Z,4.50
2022-11-16T07:08:51.194Z,4.50
2022-11-16T07:11:25.925Z,4.50
2022-11-16T07:13:54.133Z,4.50
2022-11-16T07:16:22.692Z,4.60
2022-11-16T07:18:59.293Z,4.60
2022-11-16T07:21:30.081Z,4.70
2022-11-16T07:24:00.300Z,4.80
2022-11-16T07:26:31.184Z,4.80
2022-11-16T07:29:04.910Z,4.90
2022-11-16T07:31:34.765Z,4.90
2022-11-16T07:34:34.700Z,4.90
2022-11-16T07:37:09.061Z,5.00
2022-11-16T07:39:37.311Z,5.00
2022-11-16T07:42:11.819Z,5.10
2022-11-16T07:44:51.428Z,5.10
2022-11-16T07:47:20.273Z,5.20
2022-11-16T07:49:49.035Z,5.30
2022-11-16T07:52:20.519Z,5.40
2022-11-16T07:54:57.575Z,5.40
2022-11-16T07:57:29.317Z,5.60
2022-11-16T08:00:01.160Z,5.60
2022-11-16T08:02:30.663Z,5.70
2022-11-16T08:04:58.746Z,5.70
2022-11-16T08:07:29.453Z,5.80
2022-11-16T08:09:58.193Z,5.80
2022-11-16T08:12:26.585Z,5.90
2022-11-16T08:14:57.307Z,5.90
2022-11-16T08:17:25.415Z,5.90
2022-11-16T08:19:54.637Z,6.00
2022-11-16T08:22:23.369Z,6.00
2022-11-16T08:24:51.613Z,6.00
2022-11-16T08:27:19.814Z,6.00
2022-11-16T08:29:53.233Z,6.10
2022-11-16T08:32:23.925Z,6.10
2022-11-16T08:34:52.427Z,6.10
2022-11-16T08:37:20.797Z,6.10
2022-11-16T08:39:49.663Z,6.10
2022-11-16T08:42:17.928Z,6.10
2022-11-16T08:44:48.769Z,6.10
2022-11-16T08:47:19.785Z,6.20
2022-11-16T08:49:58.164Z,6.20
2022-11-16T08:52:28.830Z,6.20
2022-11-16T08:54:58.074Z,6.20
2022-11-16T08:57:26.833Z,6.30
2022-11-16T09:00:00.704Z,6.30
2022-11-16T09:02:28.795Z,6.30
2022-11-16T09:04:58.223Z,6.40
2022-11-16T09:07:26.378Z,6.50
2022-11-16T09:09:54.778Z,6.60
2022-11-16T09:12:23.096Z,6.70
2022-11-16T09:14:51.337Z,6.70
2022-11-16T09:17:23.159Z,6.80
2022-11-16T09:19:51.837Z,6.80
2022-11-16T09:22:21.456Z,6.90
2022-11-16T09:24:49.850Z,7.00
2022-11-16T09:27:17.901Z,7.10
2022-11-16T09:29:45.933Z,7.10
2022-11-16T09:32:14.122Z,7.10
2022-11-16T09:34:42.290Z,7.20
2022-11-16T09:37:10.527Z,7.20
2022-11-16T09:39:40.152Z,7.30
2022-11-16T09:42:31.500Z,7.40
2022-11-16T09:45:06.413Z,7.40
2022-11-16T09:47:42.145Z,7.50
2022-11-16T09:50:28.122Z,7.50
2022-11-16T09:53:00.446Z,7.50
2022-11-16T09:55:36.072Z,7.60
2022-11-16T09:58:09.978Z,7.50
2022-11-16T10:00:42.497Z,7.60
2022-11-16T10:03:13.774Z,7.60
2022-11-16T10:05:48.946Z,7.70
2022-11-16T10:08:24.605Z,7.70
2022-11-16T10:11:02.690Z,7.70
2022-11-16T10:13:46.131Z,7.80
2022-11-16T10:16:18.367Z,7.80
2022-11-16T10:18:55.297Z,7.90
2022-11-16T10:21:39.656Z,8.00
2022-11-16T10:24:25.635Z,8.10
2022-11-16T10:27:06.508Z,8.20
2022-11-16T10:29:47.509Z,8.20
2022-11-16T10:32:22.144Z,8.10
2022-11-16T10:34:53.605Z,8.10
2022-11-16T10:37:23.171Z,8.00
2022-11-16T10:39:54.183Z,8.10
2022-11-16T10:42:29.864Z,8.10
2022-11-16T10:45:04.051Z,8.10
2022-11-16T10:47:42.560Z,8.20
2022-11-16T10:50:31.803Z,8.20
2022-11-16T10:53:00.634Z,8.20
2022-11-16T10:55:29.962Z,8.20
2022-11-16T10:58:01.076Z,8.30
2022-11-16T11:00:52.884Z,8.30
2022-11-16T11:03:33.868Z,8.40
2022-11-16T11:06:02.443Z,8.50
2022-11-16T11:08:32.180Z,8.50
2022-11-16T11:11:22.791Z,8.60
2022-11-16T11:14:10.378Z,8.70
2022-11-16T11:16:39.216Z,8.90
2022-11-16T11:19:19.993Z,9.00
2022-11-16T11:21:48.607Z,9.10
2022-11-16T11:24:45.805Z,9.20
2022-11-16T11:27:07.068Z,9.30
2022-11-16T11:29:38.773Z,9.40
2022-11-16T11:32:09.508Z,9.30
2022-11-16T11:34:42.726Z,9.40
2022-11-16T11:37:16.614Z,9.30
2022-11-16T11:39:44.843Z,9.30
2022-11-16T11:42:24.228Z,9.20
2022-11-16T11:44:58.895Z,9.10
2022-11-16T11:47:58.812Z,9.00
2022-11-16T11:50:38.047Z,8.80
2022-11-16T11:53:12.720Z,8.80
2022-11-16T11:55:40.858Z,8.90
2022-11-16T11:58:15.595Z,8.60
2022-11-16T12:00:58.801Z,8.50
2022-11-16T12:03:50.788Z,8.30
2022-11-16T12:06:23.686Z,8.10
2022-11-16T12:09:06.971Z,7.90
2022-11-16T12:11:48.938Z,7.90
2022-11-16T12:14:32.513Z,7.80
2022-11-16T12:17:09.886Z,7.80
2022-11-16T12:20:05.626Z,7.70
2022-11-16T12:22:48.692Z,7.60
2022-11-16T12:25:25.560Z,7.50
2022-11-16T12:28:11.069Z,7.50
2022-11-16T12:30:52.991Z,7.40
2022-11-16T12:33:36.899Z,7.40
2022-11-16T12:36:16.423Z,7.30
2022-11-16T12:38:56.315Z,7.20
2022-11-16T12:41:53.344Z,7.20
2022-11-16T12:44:27.712Z,7.20
2022-11-16T12:47:03.790Z,7.20
2022-11-16T12:49:55.799Z,7.20
2022-11-16T12:52:39.884Z,7.20
2022-11-16T12:55:26.668Z,7.20
2022-11-16T12:58:14.113Z,7.20
2022-11-16T13:00:54.624Z,7.20
2022-11-16T13:03:29.914Z,7.30
2022-11-16T13:06:04.685Z,7.30
2022-11-16T13:08:44.798Z,7.20
2022-11-16T13:11:18.416Z,7.30
2022-11-16T13:13:53.451Z,7.30
2022-11-16T13:16:23.511Z,7.30
2022-11-16T13:18:53.341Z,7.30
2022-11-16T13:21:34.050Z,7.30
2022-11-16T13:24:22.618Z,7.30
2022-11-16T13:26:58.875Z,7.30
2022-11-16T13:29:35.189Z,7.20
2022-11-16T13:32:10.242Z,7.20
2022-11-16T13:34:40.895Z,7.20
2022-11-16T13:37:43.521Z,7.20
2022-11-16T13:40:27.525Z,7.20
2022-11-16T13:43:18.530Z,7.10
2022-11-16T13:45:56.939Z,7.20
2022-11-16T13:48:30.707Z,7.20
2022-11-16T13:51:02.427Z,7.20
2022-11-16T13:54:37.820Z,7.20
2022-11-16T13:56:28.592Z,7.20
2022-11-16T13:58:58.431Z,7.20
2022-11-16T14:01:26.993Z,7.20
2022-11-16T14:04:36.127Z,7.10
2022-11-16T14:07:05.734Z,7.10
2022-11-16T14:09:43.902Z,7.00
2022-11-16T14:12:59.494Z,7.00
2022-11-16T14:15:33.767Z,6.90
2022-11-16T14:18:36.981Z,6.90
2022-11-16T14:21:16.022Z,6.90
2022-11-16T14:24:15.321Z,6.90
2022-11-16T14:26:51.751Z,6.90
2022-11-16T14:29:34.830Z,6.90
2022-11-16T14:32:04.954Z,6.80
2022-11-16T14:34:41.010Z,6.80
2022-11-16T14:37:14.070Z,6.80
2022-11-16T14:39:44.503Z,6.80
2022-11-16T14:42:23.741Z,6.70
2022-11-16T14:44:59.187Z,6.70
2022-11-16T14:47:29.453Z,6.70
2022-11-16T14:49:58.395Z,6.70
2022-11-16T14:52:31.154Z,6.70
2022-11-16T14:55:05.977Z,6.60
2022-11-16T14:57:34.085Z,6.60
2022-11-16T15:00:13.374Z,6.60
2022-11-16T15:02:41.980Z,6.60
2022-11-16T15:05:16.801Z,6.60
2022-11-16T15:07:46.214Z,6.50
2022-11-16T15:10:18.825Z,6.50
2022-11-16T15:12:51.605Z,6.50
2022-11-16T15:15:23.558Z,6.50
2022-11-16T15:18:07.081Z,6.50
2022-11-16T15:20:36.649Z,6.50
2022-11-16T15:23:06.496Z,6.50
2022-11-16T15:25:38.597Z,6.50
2022-11-16T15:28:14.478Z,6.50
2022-11-16T15:30:42.931Z,6.50
2022-11-16T15:33:16.258Z,6.50
2022-11-16T15:35:45.314Z,6.50
2022-11-16T15:38:17.746Z,6.50
2022-11-16T15:40:50.821Z,6.50
2022-11-16T15:43:19.832Z,6.50
2022-11-16T15:45:48.448Z,6.50
2022-11-16T15:48:20.809Z,6.50
2022-11-16T15:51:04.297Z,6.50
2022-11-16T15:53:38.784Z,6.50
2022-11-16T15:56:13.223Z,6.50
2022-11-16T15:58:42.393Z,6.50
2022-11-16T16:01:12.113Z,6.50
2022-11-16T16:03:40.245Z,6.50
2022-11-16T16:06:13.749Z,6.50
2022-11-16T16:08:42.066Z,6.50
2022-11-16T16:11:27.249Z,6.50
2022-11-16T16:13:59.693Z,6.50
2022-11-16T16:16:31.511Z,6.50
2022-11-16T16:19:06.706Z,6.50
2022-11-16T16:21:44.300Z,6.40
2022-11-16T16:24:37.560Z,6.40
2022-11-16T16:27:19.497Z,6.50
2022-11-16T16:29:48.814Z,6.40
2022-11-16T16:32:25.932Z,6.50
2022-11-16T16:34:54.961Z,6.50
2022-11-16T16:37:23.446Z,6.50
2022-11-16T16:39:51.495Z,6.50
2022-11-16T16:42:21.351Z,6.40
2022-11-16T16:44:49.686Z,6.40
2022-11-16T16:47:20.678Z,6.40
2022-11-16T16:49:49.121Z,6.40
2022-11-16T16:52:17.605Z,6.50
2022-11-16T16:54:46.132Z,6.50
2022-11-16T16:57:15.847Z,6.50
2022-11-16T16:59:48.230Z,6.40
2022-11-16T17:02:17.433Z,6.50
2022-11-16T17:04:46.894Z,6.50
2022-11-16T17:07:15.343Z,6.50
2022-11-16T17:09:43.785Z,6.50
2022-11-16T17:12:12.090Z,6.50
2022-11-16T17:14:40.374Z,6.50
2022-11-16T17:17:10.214Z,6.50
2022-11-16T17:19:38.432Z,6.50
2022-11-16T17:22:06.597Z,6.50
2022-11-16T17:24:36.077Z,6.50
2022-11-16T17:27:04.637Z,6.50
2022-11-16T17:29:32.772Z,6.50
2022-11-16T17:32:01.155Z,6.50
2022-11-16T17:34:31.431Z,6.50
2022-11-16T17:37:00.184Z,6.40
2022-11-16T17:39:33.264Z,6.40
2022-11-16T17:42:01.580Z,6.40
2022-11-16T17:44:30.455Z,6.50
2022-11-16T17:46:58.602Z,6.40
2022-11-16T17:49:26.781Z,6.40
2022-11-16T17:51:56.185Z,6.40
2022-11-16T17:54:24.249Z,6.40
2022-11-16T17:56:52.499Z,6.40
2022-11-16T17:59:22.777Z,6.30
2022-11-16T18:01:54.590Z,6.40
2022-11-16T18:04:22.752Z,6.40
2022-11-16T18:06:51.132Z,6.40
2022-11-16T18:09:21.120Z,6.40
2022-11-16T18:11:49.283Z,6.40
2022-11-16T18:14:17.353Z,6.40
2022-11-16T18:16:47.927Z,6.40
2022-11-16T18:19:17.818Z,6.40
2022-11-16T18:21:48.159Z,6.30
2022-11-16T18:24:16.709Z,6.30
2022-11-16T18:26:46.114Z,6.30
2022-11-16T18:29:16.053Z,6.30
2022-11-16T18:31:44.229Z,6.30
2022-11-16T18:34:14.374Z,6.30
2022-11-16T18:36:42.683Z,6.30
2022-11-16T18:39:10.768Z,6.30
2022-11-16T18:41:51.653Z,6.20
2022-11-16T18:44:23.173Z,6.20
2022-11-16T18:46:51.271Z,6.20
2022-11-16T18:49:19.570Z,6.20
2022-11-16T18:51:47.664Z,6.20
2022-11-16T18:54:15.902Z,6.20
2022-11-16T18:56:43.954Z,6.20
2022-11-16T18:59:13.570Z,6.20
2022-11-16T19:01:41.740Z,6.20
2022-11-16T19:04:10.962Z,6.20
2022-11-16T19:06:39.060Z,6.20
2022-11-16T19:09:09.761Z,6.20
2022-11-16T19:11:38.204Z,6.20
2022-11-16T19:14:07.725Z,6.20
2022-11-16T19:16:38.847Z,6.20
2022-11-16T19:19:08.692Z,6.10
2022-11-16T19:21:36.934Z,6.10
2022-11-16T19:24:08.224Z,6.10
2022-11-16T19:26:36.606Z,6.10
2022-11-16T19:29:04.698Z,6.10
2022-11-16T19:31:34.065Z,6.00
2022-11-16T19:34:05.524Z,6.00
2022-11-16T19:36:34.947Z,5.90
2022-11-16T19:39:03.540Z,5.90
2022-11-16T19:41:31.623Z,5.80
2022-11-16T19:44:01.848Z,5.80
2022-11-16T19:46:31.944Z,5.70
2022-11-16T19:49:00.867Z,5.70
2022-11-16T19:51:32.124Z,5.60
2022-11-16T19:54:00.927Z,5.60
2022-11-16T19:56:29.395Z,5.50
2022-11-16T19:58:57.454Z,5.40
2022-11-16T20:01:28.740Z,5.40
2022-11-16T20:03:58.605Z,5.30
2022-11-16T20:06:29.166Z,5.30
2022-11-16T20:09:01.057Z,5.20
2022-11-16T20:11:31.494Z,5.20
2022-11-16T20:14:00.117Z,5.20
2022-11-16T20:16:35.383Z,5.10
2022-11-16T20:19:07.005Z,5.10
2022-11-16T20:21:37.222Z,5.20
2022-11-16T20:24:09.752Z,5.20
2022-11-16T20:26:41.923Z,5.20
2022-11-16T20:29:12.025Z,5.20
2022-11-16T20:31:42.825Z,5.30
2022-11-16T20:34:14.664Z,5.30
2022-11-16T20:36:43.991Z,5.30
2022-11-16T20:39:16.204Z,5.30
2022-11-16T20:41:45.097Z,5.40
2022-11-16T20:44:16.741Z,5.40
2022-11-16T20:46:45.306Z,5.40
2022-11-16T20:49:13.775Z,5.50
2022-11-16T20:51:42.242Z,5.50
2022-11-16T20:54:10.423Z,5.50
2022-11-16T20:56:39.929Z,5.50
2022-11-16T20:59:08.007Z,5.50
2022-11-16T21:01:36.734Z,5.60
2022-11-16T21:04:11.881Z,5.60
2022-11-16T21:06:40.102Z,5.60
2022-11-16T21:09:08.173Z,5.60
2022-11-16T21:11:56.867Z,5.60
2022-11-16T21:14:25.414Z,5.60
2022-11-16T21:16:53.477Z,5.60
2022-11-16T21:19:21.637Z,5.60
2022-11-16T21:21:49.704Z,5.60
2022-11-16T21:24:17.801Z,5.60
2022-11-16T21:26:46.154Z,5.60
2022-11-16T21:29:14.542Z,5.60
2022-11-16T21:31:43.976Z,5.60
2022-11-16T21:34:12.048Z,5.60
2022-11-16T21:36:40.275Z,5.60
2022-11-16T21:39:08.404Z,5.70
2022-11-16T21:41:36.757Z,5.60
2022-11-16T21:44:05.102Z,5.70
2022-11-16T21:46:33.182Z,5.60
2022-11-16T21:49:02.704Z,5.60
2022-11-16T21:51:31.031Z,5.60
2022-11-16T21:53:59.273Z,5.60
2022-11-16T21:56:27.402Z,5.70
2022-11-16T21:58:55.955Z,5.60
2022-11-16T22:01:24.892Z,5.70
2022-11-16T22:04:07.098Z,5.60
2022-11-16T22:06:54.278Z,5.60
2022-11-16T22:09:22.920Z,5.60
2022-11-16T22:11:51.167Z,5.60
2022-11-16T22:14:19.543Z,5.60
2022-11-16T22:16:47.582Z,5.60
2022-11-16T22:19:15.723Z,5.60
2022-11-16T22:21:45.455Z,5.60
2022-11-16T22:24:13.500Z,5.60
2022-11-16T22:26:41.771Z,5.60
2022-11-16T22:29:09.821Z,5.60
2022-11-16T22:31:37.899Z,5.60
2022-11-16T22:34:05.985Z,5.60
2022-11-16T22:36:34.076Z,5.60
2022-11-16T22:39:03.532Z,5.60
2022-11-16T22:41:31.551Z,5.60
2022-11-16T22:43:59.678Z,5.60
2022-11-16T22:46:27.778Z,5.60
2022-11-16T22:48:55.901Z,5.60
2022-11-16T22:51:26.171Z,5.60
2022-11-16T22:53:55.236Z,5.60
2022-11-16T22:56:25.174Z,5.60
2022-11-16T22:58:53.506Z,5.60
2022-11-16T23:01:22.196Z,5.60
2022-11-16T23:03:50.692Z,5.60
2022-11-16T23:06:19.033Z,5.60
2022-11-16T23:08:47.158Z,5.60
2022-11-16T23:11:34.013Z,5.60
2022-11-16T23:14:21.827Z,5.60
2022-11-16T23:16:50.284Z,5.60
2022-11-16T23:19:34.531Z,5.60
2022-11-16T23:22:20.450Z,5.60
2022-11-16T23:25:06.357Z,5.50
2022-11-16T23:27:40.795Z,5.50
2022-11-16T23:30:13.139Z,5.50
2022-11-16T23:32:42.412Z,5.50
2022-11-16T23:35:11.370Z,5.50
2022-11-16T23:37:51.743Z,5.50
2022-11-16T23:40:20.174Z,5.50
2022-11-16T23:43:05.903Z,5.50
2022-11-16T23:45:35.535Z,5.50
2022-11-16T23:48:03.926Z,5.50
2022-11-16T23:50:31.984Z,5.60
2022-11-16T23:53:00.249Z,5.50
2022-11-16T23:55:28.347Z,5.50
2022-11-16T23:57:56.360Z,5.50
